Time,TemperatureF,DewpointF,PressureIn,WindDirection,WindDirectionDegrees,WindSpeedMPH,WindSpeedGustMPH,Humidity,HourlyPrecipIn,Conditions,Clouds,dailyrainin,SoftwareType,DateUTC
2013-09-17 00:00:00,65.6,59.3,30.12,NE,46,0.0,0.0,80,0.00,,,0.07,LWC V2.00 B2112,2013-09-17 04:00:00,
2013-09-17 00:05:00,65.3,59.0,30.12,NE,46,0.0,0.0,80,0.00,,,0.07,LWC V2.00 B2112,2013-09-17 04:05:00,
2013-09-17 00:10:00,65.2,59.2,30.12,NE,56,0.0,0.0,81,0.00,,,0.07,LWC V2.00 B2112,2013-09-17 04:10:00,
2013-09-17 00:15:00,65.0,59.0,30.12,NE,56,0.0,0.0,81,0.00,,,0.07,LWC V2.00 B2112,2013-09-17 04:15:00,
2013-09-17 00:20:00,64.8,58.8,30.12,NE,56,0.0,0.0,81,0.00,,,0.07,LWC V2.00 B2112,2013-09-17 04:20:00,
2013-09-17 00:25:00,64.7,59.1,30.12,ENE,63,0.0,0.0,82,0.00,,,0.07,LWC V2.00 B2112,2013-09-17 04:25:00,
2013-09-17 00:30:00,64.5,58.9,30.12,ENE,63,0.0,0.0,82,0.00,,,0.07,LWC V2.00 B2112,2013-09-17 04:30:00,
2013-09-17 00:35:00,64.3,59.0,30.12,ENE,63,0.0,0.0,83,0.00,,,0.07,LWC V2.00 B2112,2013-09-17 04:35:00,
2013-09-17 00:40:00,64.2,58.9,30.12,ENE,63,0.0,0.0,83,0.00,,,0.07,LWC V2.00 B2112,2013-09-17 04:40:00,
2013-09-17 00:45:00,64.0,58.7,30.12,ENE,63,0.0,0.0,83,0.00,,,0.07,LWC V2.00 B2112,2013-09-17 04:45:00,
2013-09-17 00:50:00,63.9,58.6,30.12,ENE,63,0.0,0.0,83,0.00,,,0.07,LWC V2.00 B2112,2013-09-17 04:50:00,
2013-09-17 00:55:00,63.7,58.4,30.12,ENE,62,0.0,0.0,83,0.00,,,0.00,LWC V2.00 B2112,2013-09-17 04:55:00,
2013-09-17 01:00:00,63.7,58.8,30.12,ENE,63,0.0,0.0,84,0.00,,,0.00,LWC V2.00 B2112,2013-09-17 05:00:00,
2013-09-17 01:05:00,63.5,58.2,30.12,ENE,63,0.0,0.0,83,0.00,,,0.00,LWC V2.00 B2112,2013-09-17 05:05:00,
2013-09-17 01:10:00,63.4,58.1,30.12,ENE,63,0.0,0.0,83,0.00,,,0.00,LWC V2.00 B2112,2013-09-17 05:10:00,
2013-09-17 01:15:00,63.2,57.9,30.12,ENE,63,0.0,0.0,83,0.00,,,0.00,LWC V2.00 B2112,2013-09-17 05:15:00,
2013-09-17 01:20:00,63.1,57.8,30.12,ENE,63,0.0,0.0,83,0.00,,,0.00,LWC V2.00 B2112,2013-09-17 05:20:00,
2013-09-17 01:25:00,62.9,57.7,30.12,ENE,63,0.0,0.0,83,0.00,,,0.00,LWC V2.00 B2112,2013-09-17 05:25:00,
2013-09-17 01:30:00,62.7,57.1,30.12,ENE,63,0.0,0.0,82,0.00,,,0.00,LWC V2.00 B2112,2013-09-17 05:30:00,
2013-09-17 01:35:00,62.6,57.0,30.12,ENE,63,0.0,0.0,82,0.00,,,0.00,LWC V2.00 B2112,2013-09-17 05:35:00,
2013-09-17 01:40:00,62.4,56.8,30.12,ENE,63,0.0,0.0,82,0.00,,,0.00,LWC V2.00 B2112,2013-09-17 05:40:00,
2013-09-17 01:45:00,62.3,56.7,30.12,ENE,62,0.0,0.0,82,0.00,,,0.00,LWC V2.00 B2112,2013-09-17 05:45:00,
2013-09-17 01:50:00,62.1,56.2,30.12,ENE,63,0.0,0.0,81,0.00,,,0.00,LWC V2.00 B2112,2013-09-17 05:50:00,
2013-09-17 01:55:00,62.1,56.5,30.13,ENE,63,0.0,0.0,82,0.00,,,0.00,LWC V2.00 B2112,2013-09-17 05:55:00,
2013-09-17 02:00:00,62.0,56.4,30.13,ENE,62,0.0,0.0,82,0.00,,,0.00,LWC V2.00 B2112,2013-09-17 06:00:00,
2013-09-17 02:05:00,62.0,56.4,30.13,ENE,63,0.0,0.0,82,0.00,,,0.00,LWC V2.00 B2112,2013-09-17 06:05:00,
2013-09-17 02:10:00,61.8,56.2,30.12,ENE,63,0.0,0.0,82,0.00,,,0.00,LWC V2.00 B2112,2013-09-17 06:10:00,
2013-09-17 02:15:00,61.6,56.4,30.12,ENE,63,0.0,0.0,83,0.00,,,0.00,LWC V2.00 B2112,2013-09-17 06:15:00,
2013-09-17 02:20:00,61.5,56.3,30.12,ENE,63,0.0,0.0,83,0.00,,,0.00,LWC V2.00 B2112,2013-09-17 06:20:00,
2013-09-17 02:25:00,61.3,56.1,30.12,ENE,63,0.0,0.0,83,0.00,,,0.00,LWC V2.00 B2112,2013-09-17 06:25:00,
2013-09-17 02:30:00,61.3,56.4,30.12,ENE,63,0.0,0.0,84,0.00,,,0.00,LWC V2.00 B2112,2013-09-17 06:30:00,
2013-09-17 02:35:00,61.2,56.3,30.12,ENE,63,0.0,0.0,84,0.00,,,0.00,LWC V2.00 B2112,2013-09-17 06:35:00,
2013-09-17 02:40:00,61.0,56.1,30.12,ENE,63,0.0,0.0,84,0.00,,,0.00,LWC V2.00 B2112,2013-09-17 06:40:00,
2013-09-17 02:45:00,60.9,56.4,30.12,ENE,63,0.0,0.0,85,0.00,,,0.00,LWC V2.00 B2112,2013-09-17 06:45:00,
2013-09-17 02:50:00,60.7,56.2,30.12,ENE,63,0.0,0.0,85,0.00,,,0.00,LWC V2.00 B2112,2013-09-17 06:50:00,
2013-09-17 02:55:00,60.5,56.0,30.12,ENE,63,0.0,0.0,85,0.00,,,0.00,LWC V2.00 B2112,2013-09-17 06:55:00,
2013-09-17 03:00:00,60.4,55.9,30.12,ENE,63,0.0,0.0,85,0.00,,,0.00,LWC V2.00 B2112,2013-09-17 07:00:00,
2013-09-17 03:05:00,60.2,56.0,30.12,ENE,63,0.0,0.0,86,0.00,,,0.00,LWC V2.00 B2112,2013-09-17 07:05:00,
2013-09-17 03:10:00,60.2,55.7,30.13,ENE,63,0.0,0.0,85,0.00,,,0.00,LWC V2.00 B2112,2013-09-17 07:10:00,
2013-09-17 03:15:00,60.1,55.6,30.13,ENE,62,0.0,0.0,85,0.00,,,0.00,LWC V2.00 B2112,2013-09-17 07:15:00,
2013-09-17 03:20:00,59.9,55.4,30.13,ENE,63,0.0,0.0,85,0.00,,,0.00,LWC V2.00 B2112,2013-09-17 07:20:00,
2013-09-17 03:25:00,59.9,55.7,30.13,ENE,63,0.0,0.0,86,0.00,,,0.00,LWC V2.00 B2112,2013-09-17 07:25:00,
2013-09-17 03:30:00,59.8,55.6,30.13,ENE,63,0.0,0.0,86,0.00,,,0.00,LWC V2.00 B2112,2013-09-17 07:30:00,
2013-09-17 03:35:00,59.6,55.4,30.13,ENE,63,0.0,0.0,86,0.00,,,0.00,LWC V2.00 B2112,2013-09-17 07:35:00,
2013-09-17 03:40:00,59.5,55.6,30.13,ENE,63,0.0,0.0,87,0.00,,,0.00,LWC V2.00 B2112,2013-09-17 07:40:00,
2013-09-17 03:45:00,59.5,55.6,30.13,ENE,63,0.0,0.0,87,0.00,,,0.00,LWC V2.00 B2112,2013-09-17 07:45:00,
2013-09-17 03:50:00,59.5,55.9,30.13,ENE,63,0.0,0.0,88,0.00,,,0.00,LWC V2.00 B2112,2013-09-17 07:50:00,
2013-09-17 03:55:00,59.3,55.7,30.14,ENE,63,0.0,0.0,88,0.00,,,0.00,LWC V2.00 B2112,2013-09-17 07:55:00,
2013-09-17 04:00:00,59.3,55.7,30.14,ENE,63,0.0,0.0,88,0.00,,,0.00,LWC V2.00 B2112,2013-09-17 08:00:00,
2013-09-17 04:05:00,59.2,55.6,30.14,ENE,63,0.0,0.0,88,0.00,,,0.00,LWC V2.00 B2112,2013-09-17 08:05:00,
2013-09-17 04:10:00,59.0,55.4,30.14,ENE,62,0.0,0.0,88,0.00,,,0.00,LWC V2.00 B2112,2013-09-17 08:10:00,
2013-09-17 04:15:00,58.9,55.3,30.14,ENE,63,0.0,0.0,88,0.00,,,0.00,LWC V2.00 B2112,2013-09-17 08:15:00,
2013-09-17 04:20:00,58.7,55.2,30.14,ENE,63,0.0,0.0,88,0.00,,,0.00,LWC V2.00 B2112,2013-09-17 08:20:00,
2013-09-17 04:25:00,58.6,55.1,30.14,ENE,63,0.0,0.0,88,0.00,,,0.00,LWC V2.00 B2112,2013-09-17 08:25:00,
2013-09-17 04:30:00,58.4,55.2,30.14,ENE,63,0.0,0.0,89,0.00,,,0.00,LWC V2.00 B2112,2013-09-17 08:30:00,
2013-09-17 04:35:00,58.4,55.2,30.14,ENE,62,0.0,0.0,89,0.00,,,0.00,LWC V2.00 B2112,2013-09-17 08:35:00,
2013-09-17 04:40:00,58.4,55.2,30.14,ENE,63,0.0,0.0,89,0.00,,,0.00,LWC V2.00 B2112,2013-09-17 08:40:00,
2013-09-17 04:45:00,58.3,55.4,30.14,ENE,62,0.0,0.0,90,0.00,,,0.00,LWC V2.00 B2112,2013-09-17 08:45:00,
2013-09-17 04:50:00,58.3,55.4,30.14,ENE,63,0.0,0.0,90,0.00,,,0.00,LWC V2.00 B2112,2013-09-17 08:50:00,
2013-09-17 04:55:00,58.1,55.2,30.14,ENE,63,0.0,0.0,90,0.00,,,0.00,LWC V2.00 B2112,2013-09-17 08:55:00,
2013-09-17 05:00:00,58.0,55.1,30.14,ENE,63,0.0,0.0,90,0.00,,,0.00,LWC V2.00 B2112,2013-09-17 09:00:00,
2013-09-17 05:05:00,58.0,55.1,30.14,ENE,63,0.0,0.0,90,0.00,,,0.00,LWC V2.00 B2112,2013-09-17 09:05:00,
2013-09-17 05:10:00,57.8,55.2,30.15,ENE,63,0.0,0.0,91,0.00,,,0.00,LWC V2.00 B2112,2013-09-17 09:10:00,
2013-09-17 05:15:00,57.8,55.2,30.15,ENE,63,0.0,0.0,91,0.00,,,0.00,LWC V2.00 B2112,2013-09-17 09:15:00,
2013-09-17 05:20:00,57.8,55.2,30.15,ENE,63,0.0,0.0,91,0.00,,,0.00,LWC V2.00 B2112,2013-09-17 09:20:00,
2013-09-17 05:25:00,57.6,55.0,30.15,ENE,63,0.0,0.0,91,0.00,,,0.00,LWC V2.00 B2112,2013-09-17 09:25:00,
2013-09-17 05:30:00,57.6,55.0,30.15,ENE,63,0.0,0.0,91,0.00,,,0.00,LWC V2.00 B2112,2013-09-17 09:30:00,
2013-09-17 05:35:00,57.5,54.9,30.15,ENE,62,0.0,0.0,91,0.00,,,0.00,LWC V2.00 B2112,2013-09-17 09:35:00,
2013-09-17 05:40:00,57.3,54.7,30.16,ENE,63,0.0,0.0,91,0.00,,,0.00,LWC V2.00 B2112,2013-09-17 09:40:00,
2013-09-17 05:45:00,57.2,54.6,30.16,ENE,63,0.0,0.0,91,0.00,,,0.00,LWC V2.00 B2112,2013-09-17 09:45:00,
2013-09-17 05:50:00,57.0,54.4,30.16,ENE,63,0.0,0.0,91,0.00,,,0.00,LWC V2.00 B2112,2013-09-17 09:50:00,
2013-09-17 05:55:00,56.9,54.3,30.16,ENE,63,0.0,0.0,91,0.00,,,0.00,LWC V2.00 B2112,2013-09-17 09:55:00,
2013-09-17 06:00:00,56.7,54.4,30.16,ENE,63,0.0,0.0,92,0.00,,,0.00,LWC V2.00 B2112,2013-09-17 10:00:00,
2013-09-17 06:05:00,56.7,54.4,30.16,ENE,62,0.0,0.0,92,0.00,,,0.00,LWC V2.00 B2112,2013-09-17 10:05:00,
2013-09-17 06:10:00,56.9,54.6,30.16,ENE,62,0.0,0.0,92,0.00,,,0.00,LWC V2.00 B2112,2013-09-17 10:10:00,
2013-09-17 06:15:00,56.9,54.3,30.16,ENE,62,0.0,0.0,91,0.00,,,0.00,LWC V2.00 B2112,2013-09-17 10:15:00,
2013-09-17 06:20:00,56.9,54.3,30.16,South,173,0.0,0.0,91,0.00,,,0.00,LWC V2.00 B2112,2013-09-17 10:20:00,
2013-09-17 06:25:00,56.9,54.3,30.16,South,173,0.0,0.0,91,0.00,,,0.00,LWC V2.00 B2112,2013-09-17 10:25:00,
2013-09-17 06:30:00,56.9,54.0,30.16,South,173,0.0,0.0,90,0.00,,,0.00,LWC V2.00 B2112,2013-09-17 10:30:00,
2013-09-17 06:35:00,56.9,54.0,30.16,South,173,0.0,0.0,90,0.00,,,0.00,LWC V2.00 B2112,2013-09-17 10:35:00,
2013-09-17 06:40:00,56.9,54.0,30.17,South,173,0.0,0.0,90,0.00,,,0.00,LWC V2.00 B2112,2013-09-17 10:40:00,
2013-09-17 06:45:00,56.7,53.8,30.17,South,173,0.0,0.0,90,0.00,,,0.00,LWC V2.00 B2112,2013-09-17 10:45:00,
2013-09-17 06:50:00,56.7,53.8,30.17,South,173,0.0,0.0,90,0.00,,,0.00,LWC V2.00 B2112,2013-09-17 10:50:00,
2013-09-17 06:55:00,56.7,53.8,30.18,South,173,0.0,0.0,90,0.00,,,0.00,LWC V2.00 B2112,2013-09-17 10:55:00,
2013-09-17 07:00:00,56.6,54.0,30.18,South,173,0.0,0.0,91,0.00,,,0.00,LWC V2.00 B2112,2013-09-17 11:00:00,
2013-09-17 07:05:00,56.6,54.0,30.18,South,173,0.0,0.0,91,0.00,,,0.00,LWC V2.00 B2112,2013-09-17 11:05:00,
2013-09-17 07:10:00,56.5,53.9,30.18,South,173,0.0,0.0,91,0.00,,,0.00,LWC V2.00 B2112,2013-09-17 11:10:00,
2013-09-17 07:15:00,56.5,53.9,30.18,South,173,0.0,0.0,91,0.00,,,0.00,LWC V2.00 B2112,2013-09-17 11:15:00,
2013-09-17 07:20:00,56.6,54.0,30.18,South,173,0.0,0.0,91,0.00,,,0.00,LWC V2.00 B2112,2013-09-17 11:20:00,
2013-09-17 07:25:00,56.6,54.0,30.19,South,173,0.0,0.0,91,0.00,,,0.00,LWC V2.00 B2112,2013-09-17 11:25:00,
2013-09-17 07:30:00,56.6,54.3,30.19,South,173,0.0,0.0,92,0.00,,,0.00,LWC V2.00 B2112,2013-09-17 11:30:00,
2013-09-17 07:35:00,56.6,54.3,30.19,South,173,0.0,0.0,92,0.00,,,0.00,LWC V2.00 B2112,2013-09-17 11:35:00,
2013-09-17 07:40:00,56.6,54.3,30.19,South,173,0.0,0.0,92,0.00,,,0.00,LWC V2.00 B2112,2013-09-17 11:40:00,
2013-09-17 07:45:00,56.6,54.3,30.19,South,173,0.0,0.0,92,0.00,,,0.00,LWC V2.00 B2112,2013-09-17 11:45:00,
2013-09-17 07:50:00,56.6,54.3,30.19,South,173,0.0,0.0,92,0.00,,,0.00,LWC V2.00 B2112,2013-09-17 11:50:00,
2013-09-17 07:55:00,56.7,54.4,30.20,South,181,0.0,0.0,92,0.00,,,0.00,LWC V2.00 B2112,2013-09-17 11:55:00,
2013-09-17 08:00:00,56.9,54.6,30.20,South,181,0.0,0.0,92,0.00,,,0.00,LWC V2.00 B2112,2013-09-17 12:00:00,
2013-09-17 08:05:00,57.0,54.7,30.20,South,181,0.0,0.0,92,0.00,,,0.00,LWC V2.00 B2112,2013-09-17 12:05:00,
2013-09-17 08:10:00,57.2,54.9,30.20,South,181,0.0,0.0,92,0.00,,,0.00,LWC V2.00 B2112,2013-09-17 12:10:00,
2013-09-17 08:15:00,57.5,54.9,30.20,SSE,156,0.0,0.0,91,0.00,,,0.00,LWC V2.00 B2112,2013-09-17 12:15:00,
2013-09-17 08:20:00,57.8,54.9,30.20,NNE,18,0.0,0.0,90,0.00,,,0.00,LWC V2.00 B2112,2013-09-17 12:20:00,
2013-09-17 08:25:00,58.1,55.2,30.21,NNE,18,0.0,0.0,90,0.00,,,0.00,LWC V2.00 B2112,2013-09-17 12:25:00,
2013-09-17 08:30:00,58.3,55.4,30.21,ENE,76,0.0,0.0,90,0.00,,,0.00,LWC V2.00 B2112,2013-09-17 12:30:00,
2013-09-17 08:35:00,58.6,55.4,30.21,East,96,0.0,0.0,89,0.00,,,0.00,LWC V2.00 B2112,2013-09-17 12:35:00,
2013-09-17 08:40:00,58.9,55.3,30.21,NW,323,0.0,0.0,88,0.00,,,0.00,LWC V2.00 B2112,2013-09-17 12:40:00,
2013-09-17 08:45:00,59.2,55.6,30.21,NE,47,0.0,0.0,88,0.00,,,0.00,LWC V2.00 B2112,2013-09-17 12:45:00,
2013-09-17 08:50:00,59.5,55.6,30.21,NE,47,0.0,0.0,87,0.00,,,0.00,LWC V2.00 B2112,2013-09-17 12:50:00,
2013-09-17 08:55:00,59.8,55.6,30.21,NNE,21,0.0,0.0,86,0.00,,,0.00,LWC V2.00 B2112,2013-09-17 12:55:00,
2013-09-17 09:00:00,60.1,55.9,30.21,East,85,0.0,0.0,86,0.00,,,0.00,LWC V2.00 B2112,2013-09-17 13:00:00,
2013-09-17 09:05:00,60.5,56.3,30.21,NW,324,0.0,0.0,86,0.00,,,0.00,LWC V2.00 B2112,2013-09-17 13:05:00,
2013-09-17 09:10:00,60.7,56.5,30.22,NW,324,0.0,0.0,86,0.00,,,0.00,LWC V2.00 B2112,2013-09-17 13:10:00,
2013-09-17 09:15:00,61.2,57.0,30.22,NW,324,0.0,0.0,86,0.00,,,0.00,LWC V2.00 B2112,2013-09-17 13:15:00,
2013-09-17 09:20:00,61.5,56.6,30.22,NNE,22,0.0,0.0,84,0.00,,,0.00,LWC V2.00 B2112,2013-09-17 13:20:00,
2013-09-17 09:25:00,62.0,57.1,30.22,WNW,302,0.0,0.0,84,0.00,,,0.00,LWC V2.00 B2112,2013-09-17 13:25:00,
2013-09-17 09:30:00,62.4,56.8,30.22,ENE,69,0.0,0.0,82,0.00,,,0.00,LWC V2.00 B2112,2013-09-17 13:30:00,
2013-09-17 09:35:00,62.9,57.3,30.22,NNW,327,0.0,0.0,82,0.00,,,0.00,LWC V2.00 B2112,2013-09-17 13:35:00,
2013-09-17 09:40:00,63.2,56.9,30.22,ENE,68,0.0,1.0,80,0.00,,,0.00,LWC V2.00 B2112,2013-09-17 13:40:00,
2013-09-17 09:45:00,64.0,57.0,30.22,ENE,72,0.0,0.0,78,0.00,,,0.00,LWC V2.00 B2112,2013-09-17 13:45:00,
2013-09-17 09:50:00,65.0,57.2,30.22,SE,133,0.0,0.0,76,0.00,,,0.00,LWC V2.00 B2112,2013-09-17 13:50:00,
2013-09-17 09:55:00,65.8,56.9,30.22,ESE,107,0.0,0.0,73,0.00,,,0.00,LWC V2.00 B2112,2013-09-17 13:55:00,
2013-09-17 10:00:00,66.8,57.5,30.22,ESE,107,0.0,0.0,72,0.00,,,0.00,LWC V2.00 B2112,2013-09-17 14:00:00,
2013-09-17 10:05:00,67.6,57.5,30.22,ESE,106,0.0,0.0,70,0.00,,,0.00,LWC V2.00 B2112,2013-09-17 14:05:00,
2013-09-17 10:10:00,68.1,56.3,30.22,NNE,13,0.0,0.0,66,0.00,,,0.00,LWC V2.00 B2112,2013-09-17 14:10:00,
2013-09-17 10:15:00,68.6,56.8,30.22,ENE,65,0.0,0.0,66,0.00,,,0.00,LWC V2.00 B2112,2013-09-17 14:15:00,
2013-09-17 10:20:00,69.1,56.4,30.22,NNW,345,0.0,0.0,64,0.00,,,0.00,LWC V2.00 B2112,2013-09-17 14:20:00,
2013-09-17 10:25:00,69.8,58.3,30.23,East,101,0.0,0.0,67,0.00,,,0.00,LWC V2.00 B2112,2013-09-17 14:25:00,
2013-09-17 10:30:00,70.3,56.7,30.23,East,87,0.0,0.0,62,0.00,,,0.00,LWC V2.00 B2112,2013-09-17 14:30:00,
2013-09-17 10:35:00,70.4,55.8,30.23,East,94,0.0,0.0,60,0.00,,,0.00,LWC V2.00 B2112,2013-09-17 14:35:00,
2013-09-17 10:40:00,70.6,57.4,30.23,East,92,0.0,0.0,63,0.00,,,0.00,LWC V2.00 B2112,2013-09-17 14:40:00,
2013-09-17 10:45:00,71.1,57.4,30.23,East,92,0.0,0.0,62,0.00,,,0.00,LWC V2.00 B2112,2013-09-17 14:45:00,
2013-09-17 10:50:00,71.6,58.8,30.23,East,92,0.0,0.0,64,0.00,,,0.00,LWC V2.00 B2112,2013-09-17 14:50:00,
2013-09-17 10:55:00,72.0,57.3,30.23,NE,53,0.0,0.0,60,0.00,,,0.00,LWC V2.00 B2112,2013-09-17 14:55:00,
2013-09-17 11:00:00,72.3,57.6,30.23,East,86,0.0,0.0,60,0.00,,,0.00,LWC V2.00 B2112,2013-09-17 15:00:00,
2013-09-17 11:05:00,72.1,57.0,30.23,NE,52,0.0,0.0,59,0.00,,,0.00,LWC V2.00 B2112,2013-09-17 15:05:00,
2013-09-17 11:10:00,72.3,57.6,30.24,West,260,0.0,0.0,60,0.00,,,0.00,LWC V2.00 B2112,2013-09-17 15:10:00,
2013-09-17 11:20:00,72.5,56.4,30.24,East,96,0.0,0.0,57,0.00,,,0.00,LWC V2.00 B2112,2013-09-17 15:20:00,
2013-09-17 11:25:00,72.8,57.6,30.24,ESE,108,0.0,0.0,59,0.00,,,0.00,LWC V2.00 B2112,2013-09-17 15:25:00,
2013-09-17 11:30:00,73.2,56.0,30.24,WNW,301,0.0,0.0,55,0.00,,,0.00,LWC V2.00 B2112,2013-09-17 15:30:00,
2013-09-17 11:35:00,73.0,54.8,30.24,East,91,0.0,0.0,53,0.00,,,0.00,LWC V2.00 B2112,2013-09-17 15:35:00,
2013-09-17 11:40:00,72.7,55.6,30.24,North,359,0.0,1.0,55,0.00,,,0.00,LWC V2.00 B2112,2013-09-17 15:40:00,
2013-09-17 11:45:00,72.7,54.6,30.24,East,96,0.0,0.0,53,0.00,,,0.00,LWC V2.00 B2112,2013-09-17 15:45:00,
2013-09-17 11:50:00,72.5,55.4,30.24,East,101,0.0,0.0,55,0.00,,,0.00,LWC V2.00 B2112,2013-09-17 15:50:00,
2013-09-17 11:55:00,72.7,55.6,30.23,NNE,27,0.0,0.0,55,0.00,,,0.00,LWC V2.00 B2112,2013-09-17 15:55:00,
2013-09-17 12:00:00,73.2,56.0,30.23,SSE,149,0.0,0.0,55,0.00,,,0.00,LWC V2.00 B2112,2013-09-17 16:00:00,
2013-09-17 12:05:00,73.5,54.8,30.23,North,8,0.0,0.0,52,0.00,,,0.00,LWC V2.00 B2112,2013-09-17 16:05:00,
2013-09-17 12:10:00,73.3,55.1,30.23,East,91,0.0,0.0,53,0.00,,,0.00,LWC V2.00 B2112,2013-09-17 16:10:00,
2013-09-17 12:15:00,73.7,55.5,30.23,ENE,58,0.0,0.0,53,0.00,,,0.00,LWC V2.00 B2112,2013-09-17 16:15:00,
2013-09-17 12:20:00,74.0,53.6,30.23,WNW,296,0.0,0.0,49,0.00,,,0.00,LWC V2.00 B2112,2013-09-17 16:20:00,
2013-09-17 12:25:00,74.0,54.7,30.22,East,86,0.0,1.0,51,0.00,,,0.00,LWC V2.00 B2112,2013-09-17 16:25:00,
2013-09-17 12:30:00,73.9,55.1,30.22,ENE,76,0.0,0.0,52,0.00,,,0.00,LWC V2.00 B2112,2013-09-17 16:30:00,
2013-09-17 12:35:00,74.0,55.2,30.22,East,101,0.0,0.0,52,0.00,,,0.00,LWC V2.00 B2112,2013-09-17 16:35:00,
2013-09-17 12:40:00,74.0,51.9,30.22,East,94,0.0,1.0,46,0.00,,,0.00,LWC V2.00 B2112,2013-09-17 16:40:00,
2013-09-17 12:45:00,73.9,52.4,30.22,SE,126,0.0,0.0,47,0.00,,,0.00,LWC V2.00 B2112,2013-09-17 16:45:00,
2013-09-17 12:50:00,73.9,52.4,30.22,East,97,0.0,0.0,47,0.00,,,0.00,LWC V2.00 B2112,2013-09-17 16:50:00,
2013-09-17 12:55:00,74.2,55.4,30.21,East,94,0.0,0.0,52,0.00,,,0.00,LWC V2.00 B2112,2013-09-17 16:55:00,
2013-09-17 13:00:00,74.4,51.7,30.21,East,98,0.0,0.0,45,0.00,,,0.00,LWC V2.00 B2112,2013-09-17 17:00:00,
2013-09-17 13:05:00,74.7,53.1,30.21,ENE,58,0.0,0.0,47,0.00,,,0.00,LWC V2.00 B2112,2013-09-17 17:05:00,
2013-09-17 13:10:00,75.1,53.5,30.21,NW,305,0.0,0.0,47,0.00,,,0.00,LWC V2.00 B2112,2013-09-17 17:10:00,
2013-09-17 13:15:00,74.9,51.5,30.21,East,80,0.0,0.0,44,0.00,,,0.00,LWC V2.00 B2112,2013-09-17 17:15:00,
2013-09-17 13:20:00,74.6,53.6,30.21,NNW,345,0.0,0.0,48,0.00,,,0.00,LWC V2.00 B2112,2013-09-17 17:20:00,
2013-09-17 13:25:00,74.7,51.3,30.21,ESE,122,0.0,0.0,44,0.00,,,0.00,LWC V2.00 B2112,2013-09-17 17:25:00,
2013-09-17 13:30:00,74.7,53.1,30.21,ESE,103,0.0,0.0,47,0.00,,,0.00,LWC V2.00 B2112,2013-09-17 17:30:00,
2013-09-17 13:35:00,74.9,53.9,30.21,NW,314,0.0,0.0,48,0.00,,,0.00,LWC V2.00 B2112,2013-09-17 17:35:00,
2013-09-17 13:45:00,75.1,52.9,30.21,ESE,116,0.0,0.0,46,0.00,,,0.00,LWC V2.00 B2112,2013-09-17 17:45:00,
2013-09-17 13:50:00,75.4,53.2,30.21,NE,47,0.0,0.0,46,0.00,,,0.00,LWC V2.00 B2112,2013-09-17 17:50:00,
2013-09-17 13:55:00,75.4,53.7,30.20,ESE,118,0.0,0.0,47,0.00,,,0.00,LWC V2.00 B2112,2013-09-17 17:55:00,
2013-09-17 14:00:00,74.6,53.6,30.20,West,276,0.0,0.0,48,0.00,,,0.00,LWC V2.00 B2112,2013-09-17 18:00:00,
2013-09-17 14:05:00,74.9,52.7,30.20,East,86,0.0,0.0,46,0.00,,,0.00,LWC V2.00 B2112,2013-09-17 18:05:00,
2013-09-17 14:10:00,75.6,52.1,30.20,East,100,0.0,0.0,44,0.00,,,0.00,LWC V2.00 B2112,2013-09-17 18:10:00,
2013-09-17 14:20:00,75.8,50.4,30.20,North,6,0.0,0.0,41,0.00,,,0.00,LWC V2.00 B2112,2013-09-17 18:20:00,
2013-09-17 14:30:00,75.1,53.5,30.19,NW,309,0.0,0.0,47,0.00,,,0.00,LWC V2.00 B2112,2013-09-17 18:30:00,
2013-09-17 14:35:00,75.4,52.0,30.19,ENE,76,0.0,0.0,44,0.00,,,0.00,LWC V2.00 B2112,2013-09-17 18:35:00,
2013-09-17 14:40:00,75.8,54.1,30.19,North,7,0.0,0.0,47,0.00,,,0.00,LWC V2.00 B2112,2013-09-17 18:40:00,
2013-09-17 14:45:00,76.0,52.5,30.19,NE,37,0.0,0.0,44,0.00,,,0.00,LWC V2.00 B2112,2013-09-17 18:45:00,
2013-09-17 14:50:00,75.6,52.1,30.19,NW,311,0.0,0.0,44,0.00,,,0.00,LWC V2.00 B2112,2013-09-17 18:50:00,
2013-09-17 14:55:00,74.7,51.3,30.19,NNE,33,0.0,0.0,44,0.00,,,0.00,LWC V2.00 B2112,2013-09-17 18:55:00,
2013-09-17 15:00:00,74.0,51.9,30.19,East,79,0.0,0.0,46,0.00,,,0.00,LWC V2.00 B2112,2013-09-17 19:00:00,
2013-09-17 15:05:00,74.4,52.3,30.19,East,96,0.0,0.0,46,0.00,,,0.00,LWC V2.00 B2112,2013-09-17 19:05:00,
2013-09-17 15:10:00,74.9,53.3,30.18,East,95,0.0,0.0,47,0.00,,,0.00,LWC V2.00 B2112,2013-09-17 19:10:00,
2013-09-17 15:15:00,75.3,52.5,30.18,East,96,0.0,0.0,45,0.00,,,0.00,LWC V2.00 B2112,2013-09-17 19:15:00,
2013-09-17 15:20:00,75.8,53.5,30.18,East,96,0.0,0.0,46,0.00,,,0.00,LWC V2.00 B2112,2013-09-17 19:20:00,
2013-09-17 15:25:00,76.3,52.8,30.18,North,353,0.0,0.0,44,0.00,,,0.00,LWC V2.00 B2112,2013-09-17 19:25:00,
2013-09-17 15:30:00,76.3,52.8,30.18,WNW,285,0.0,0.0,44,0.00,,,0.00,LWC V2.00 B2112,2013-09-17 19:30:00,
2013-09-17 15:35:00,75.1,51.1,30.18,NNE,15,0.0,0.0,43,0.00,,,0.00,LWC V2.00 B2112,2013-09-17 19:35:00,
2013-09-17 15:40:00,74.2,53.8,30.18,NW,323,0.0,0.0,49,0.00,,,0.00,LWC V2.00 B2112,2013-09-17 19:40:00,
2013-09-17 15:45:00,74.4,52.3,30.18,ESE,119,0.0,0.0,46,0.00,,,0.00,LWC V2.00 B2112,2013-09-17 19:45:00,
2013-09-17 15:50:00,75.1,52.3,30.18,SE,145,0.0,0.0,45,0.00,,,0.00,LWC V2.00 B2112,2013-09-17 19:50:00,
2013-09-17 16:00:00,75.3,50.0,30.17,ENE,75,0.0,0.0,41,0.00,,,0.00,LWC V2.00 B2112,2013-09-17 20:00:00,
2013-09-17 16:05:00,75.4,50.7,30.17,SE,134,0.0,0.0,42,0.00,,,0.00,LWC V2.00 B2112,2013-09-17 20:05:00,
2013-09-17 16:10:00,75.4,53.2,30.17,NW,316,0.0,0.0,46,0.00,,,0.00,LWC V2.00 B2112,2013-09-17 20:10:00,
2013-09-17 16:15:00,75.6,50.2,30.17,East,83,0.0,0.0,41,0.00,,,0.00,LWC V2.00 B2112,2013-09-17 20:15:00,
2013-09-17 16:20:00,74.7,51.9,30.17,East,83,0.0,0.0,45,0.00,,,0.00,LWC V2.00 B2112,2013-09-17 20:20:00,
2013-09-17 16:25:00,74.7,52.5,30.17,East,83,0.0,0.0,46,0.00,,,0.00,LWC V2.00 B2112,2013-09-17 20:25:00,
2013-09-17 16:30:00,75.1,52.9,30.17,NW,307,0.0,0.0,46,0.00,,,0.00,LWC V2.00 B2112,2013-09-17 20:30:00,
2013-09-17 16:35:00,75.4,51.3,30.17,ENE,65,0.0,0.0,43,0.00,,,0.00,LWC V2.00 B2112,2013-09-17 20:35:00,
2013-09-17 16:40:00,75.3,51.9,30.16,East,91,0.0,0.0,44,0.00,,,0.00,LWC V2.00 B2112,2013-09-17 20:40:00,
2013-09-17 16:45:00,75.1,50.4,30.16,East,91,0.0,0.0,42,0.00,,,0.00,LWC V2.00 B2112,2013-09-17 20:45:00,
2013-09-17 16:50:00,74.6,50.6,30.16,ESE,103,0.0,0.0,43,0.00,,,0.00,LWC V2.00 B2112,2013-09-17 20:50:00,
2013-09-17 16:55:00,74.9,50.2,30.16,South,186,0.0,0.0,42,0.00,,,0.00,LWC V2.00 B2112,2013-09-17 20:55:00,
2013-09-17 17:00:00,75.3,52.5,30.16,WNW,284,0.0,0.0,45,0.00,,,0.00,LWC V2.00 B2112,2013-09-17 21:00:00,
2013-09-17 17:05:00,75.4,51.3,30.16,WNW,285,0.0,0.0,43,0.00,,,0.00,LWC V2.00 B2112,2013-09-17 21:05:00,
2013-09-17 17:10:00,74.9,52.1,30.16,East,84,0.0,0.0,45,0.00,,,0.00,LWC V2.00 B2112,2013-09-17 21:10:00,
2013-09-17 17:15:00,74.0,51.9,30.16,East,84,0.0,0.0,46,0.00,,,0.00,LWC V2.00 B2112,2013-09-17 21:15:00,
2013-09-17 17:20:00,73.2,51.7,30.16,East,84,0.0,0.0,47,0.00,,,0.00,LWC V2.00 B2112,2013-09-17 21:20:00,
2013-09-17 17:25:00,72.7,50.7,30.16,East,84,0.0,0.0,46,0.00,,,0.00,LWC V2.00 B2112,2013-09-17 21:25:00,
2013-09-17 17:30:00,72.5,52.8,30.16,East,84,0.0,0.0,50,0.00,,,0.00,LWC V2.00 B2112,2013-09-17 21:30:00,
2013-09-17 17:35:00,72.5,51.7,30.16,North,349,0.0,0.0,48,0.00,,,0.00,LWC V2.00 B2112,2013-09-17 21:35:00,
2013-09-17 17:40:00,72.7,53.5,30.16,East,89,0.0,0.0,51,0.00,,,0.00,LWC V2.00 B2112,2013-09-17 21:40:00,
2013-09-17 17:45:00,72.7,51.3,30.16,East,89,0.0,0.0,47,0.00,,,0.00,LWC V2.00 B2112,2013-09-17 21:45:00,
2013-09-17 17:50:00,72.7,52.4,30.16,East,89,0.0,0.0,49,0.00,,,0.00,LWC V2.00 B2112,2013-09-17 21:50:00,
2013-09-17 17:55:00,72.5,51.1,30.16,East,89,0.0,0.0,47,0.00,,,0.00,LWC V2.00 B2112,2013-09-17 21:55:00,
2013-09-17 18:00:00,72.3,52.1,30.16,East,89,0.0,0.0,49,0.00,,,0.00,LWC V2.00 B2112,2013-09-17 22:00:00,
2013-09-17 18:10:00,71.6,50.9,30.17,East,89,0.0,0.0,48,0.00,,,0.00,LWC V2.00 B2112,2013-09-17 22:10:00,
2013-09-17 18:15:00,70.8,51.2,30.17,East,89,0.0,0.0,50,0.00,,,0.00,LWC V2.00 B2112,2013-09-17 22:15:00,
2013-09-17 18:20:00,70.1,52.2,30.17,East,89,0.0,0.0,53,0.00,,,0.00,LWC V2.00 B2112,2013-09-17 22:20:00,
2013-09-17 18:25:00,69.4,51.0,30.17,East,89,0.0,0.0,52,0.00,,,0.00,LWC V2.00 B2112,2013-09-17 22:25:00,
2013-09-17 18:30:00,68.9,52.1,30.17,East,89,0.0,0.0,55,0.00,,,0.00,LWC V2.00 B2112,2013-09-17 22:30:00,
2013-09-17 18:35:00,68.4,52.1,30.17,East,89,0.0,0.0,56,0.00,,,0.00,LWC V2.00 B2112,2013-09-17 22:35:00,
2013-09-17 18:40:00,67.8,52.0,30.17,East,89,0.0,0.0,57,0.00,,,0.00,LWC V2.00 B2112,2013-09-17 22:40:00,
2013-09-17 18:45:00,67.1,51.8,30.17,East,89,0.0,0.0,58,0.00,,,0.00,LWC V2.00 B2112,2013-09-17 22:45:00,
2013-09-17 18:50:00,66.6,52.3,30.17,East,89,0.0,0.0,60,0.00,,,0.00,LWC V2.00 B2112,2013-09-17 22:50:00,
2013-09-17 18:55:00,66.3,52.4,30.17,East,89,0.0,0.0,61,0.00,,,0.00,LWC V2.00 B2112,2013-09-17 22:55:00,
2013-09-17 19:05:00,65.6,52.2,30.17,East,89,0.0,0.0,62,0.00,,,0.00,LWC V2.00 B2112,2013-09-17 23:05:00,
2013-09-17 19:10:00,65.3,52.4,30.17,East,89,0.0,0.0,63,0.00,,,0.00,LWC V2.00 B2112,2013-09-17 23:10:00,
2013-09-17 19:15:00,65.0,51.7,30.17,East,89,0.0,0.0,62,0.00,,,0.00,LWC V2.00 B2112,2013-09-17 23:15:00,
2013-09-17 19:20:00,64.7,51.4,30.17,East,89,0.0,0.0,62,0.00,,,0.00,LWC V2.00 B2112,2013-09-17 23:20:00,
2013-09-17 19:25:00,64.3,51.9,30.17,East,89,0.0,0.0,64,0.00,,,0.00,LWC V2.00 B2112,2013-09-17 23:25:00,
2013-09-17 19:30:00,64.0,52.4,30.17,East,89,0.0,0.0,66,0.00,,,0.00,LWC V2.00 B2112,2013-09-17 23:30:00,
2013-09-17 19:35:00,63.5,51.9,30.17,East,89,0.0,0.0,66,0.00,,,0.00,LWC V2.00 B2112,2013-09-17 23:35:00,
2013-09-17 19:40:00,63.2,52.1,30.18,East,89,0.0,0.0,67,0.00,,,0.00,LWC V2.00 B2112,2013-09-17 23:40:00,
2013-09-17 19:45:00,62.9,52.6,30.18,East,89,0.0,0.0,69,0.00,,,0.00,LWC V2.00 B2112,2013-09-17 23:45:00,
2013-09-17 19:50:00,62.6,52.7,30.18,East,89,0.0,0.0,70,0.00,,,0.00,LWC V2.00 B2112,2013-09-17 23:50:00,
2013-09-17 19:55:00,62.3,52.4,30.18,East,89,0.0,0.0,70,0.00,,,0.00,LWC V2.00 B2112,2013-09-17 23:55:00,
2013-09-17 20:00:00,62.0,51.7,30.18,East,89,0.0,0.0,69,0.00,,,0.00,LWC V2.00 B2112,2013-09-18 00:00:00,
2013-09-17 20:05:00,61.6,51.3,30.18,East,89,0.0,0.0,69,0.00,,,0.00,LWC V2.00 B2112,2013-09-18 00:05:00,
2013-09-17 20:10:00,61.5,51.2,30.18,East,89,0.0,0.0,69,0.00,,,0.00,LWC V2.00 B2112,2013-09-18 00:10:00,
2013-09-17 20:15:00,61.3,51.0,30.18,East,89,0.0,0.0,69,0.00,,,0.00,LWC V2.00 B2112,2013-09-18 00:15:00,
2013-09-17 20:20:00,61.0,50.8,30.18,East,89,0.0,0.0,69,0.00,,,0.00,LWC V2.00 B2112,2013-09-18 00:20:00,
2013-09-17 20:25:00,61.0,50.8,30.18,East,89,0.0,0.0,69,0.00,,,0.00,LWC V2.00 B2112,2013-09-18 00:25:00,
2013-09-17 20:30:00,60.9,51.0,30.18,East,89,0.0,0.0,70,0.00,,,0.00,LWC V2.00 B2112,2013-09-18 00:30:00,
2013-09-17 20:35:00,60.9,51.0,30.18,East,89,0.0,0.0,70,0.00,,,0.00,LWC V2.00 B2112,2013-09-18 00:35:00,
2013-09-17 20:40:00,60.7,50.9,30.18,East,89,0.0,0.0,70,0.00,,,0.00,LWC V2.00 B2112,2013-09-18 00:40:00,
2013-09-17 20:45:00,60.7,50.9,30.18,East,89,0.0,0.0,70,0.00,,,0.00,LWC V2.00 B2112,2013-09-18 00:45:00,
2013-09-17 20:50:00,60.7,50.9,30.18,East,89,0.0,0.0,70,0.00,,,0.00,LWC V2.00 B2112,2013-09-18 00:50:00,
2013-09-17 20:55:00,60.7,50.9,30.19,East,89,0.0,0.0,70,0.00,,,0.00,LWC V2.00 B2112,2013-09-18 00:55:00,
2013-09-17 21:00:00,60.5,50.7,30.19,East,89,0.0,0.0,70,0.00,,,0.00,LWC V2.00 B2112,2013-09-18 01:00:00,
2013-09-17 21:05:00,60.4,51.0,30.19,East,89,0.0,0.0,71,0.00,,,0.00,LWC V2.00 B2112,2013-09-18 01:05:00,
2013-09-17 21:10:00,60.2,50.8,30.19,East,89,0.0,0.0,71,0.00,,,0.00,LWC V2.00 B2112,2013-09-18 01:10:00,
2013-09-17 21:15:00,60.2,50.8,30.19,East,89,0.0,0.0,71,0.00,,,0.00,LWC V2.00 B2112,2013-09-18 01:15:00,
2013-09-17 21:20:00,60.1,51.0,30.19,East,89,0.0,0.0,72,0.00,,,0.00,LWC V2.00 B2112,2013-09-18 01:20:00,
2013-09-17 21:25:00,59.9,51.2,30.20,East,89,0.0,0.0,73,0.00,,,0.00,LWC V2.00 B2112,2013-09-18 01:25:00,
2013-09-17 21:30:00,59.6,50.9,30.20,East,89,0.0,0.0,73,0.00,,,0.00,LWC V2.00 B2112,2013-09-18 01:30:00,
2013-09-17 21:35:00,59.5,51.2,30.20,East,89,0.0,0.0,74,0.00,,,0.00,LWC V2.00 B2112,2013-09-18 01:35:00,
2013-09-17 21:40:00,59.2,50.9,30.20,East,89,0.0,0.0,74,0.00,,,0.00,LWC V2.00 B2112,2013-09-18 01:40:00,
2013-09-17 21:45:00,58.9,51.0,30.20,East,89,0.0,0.0,75,0.00,,,0.00,LWC V2.00 B2112,2013-09-18 01:45:00,
2013-09-17 21:50:00,58.7,51.2,30.20,East,89,0.0,0.0,76,0.00,,,0.00,LWC V2.00 B2112,2013-09-18 01:50:00,
2013-09-17 21:55:00,58.4,50.9,30.21,East,89,0.0,0.0,76,0.00,,,0.00,LWC V2.00 B2112,2013-09-18 01:55:00,
2013-09-17 22:00:00,58.3,51.1,30.21,East,89,0.0,0.0,77,0.00,,,0.00,LWC V2.00 B2112,2013-09-18 02:00:00,
2013-09-17 22:05:00,58.0,50.8,30.21,East,89,0.0,0.0,77,0.00,,,0.00,LWC V2.00 B2112,2013-09-18 02:05:00,
2013-09-17 22:10:00,57.8,51.0,30.21,East,89,0.0,0.0,78,0.00,,,0.00,LWC V2.00 B2112,2013-09-18 02:10:00,
2013-09-17 22:15:00,57.6,50.8,30.21,East,89,0.0,0.0,78,0.00,,,0.00,LWC V2.00 B2112,2013-09-18 02:15:00,
2013-09-17 22:20:00,57.5,50.7,30.21,East,89,0.0,0.0,78,0.00,,,0.00,LWC V2.00 B2112,2013-09-18 02:20:00,
2013-09-17 22:25:00,57.3,50.5,30.21,East,89,0.0,0.0,78,0.00,,,0.00,LWC V2.00 B2112,2013-09-18 02:25:00,
2013-09-17 22:30:00,57.2,50.4,30.21,East,89,0.0,0.0,78,0.00,,,0.00,LWC V2.00 B2112,2013-09-18 02:30:00,
2013-09-17 22:35:00,57.2,50.4,30.21,East,89,0.0,0.0,78,0.00,,,0.00,LWC V2.00 B2112,2013-09-18 02:35:00,
2013-09-17 22:40:00,57.2,50.4,30.21,East,89,0.0,0.0,78,0.00,,,0.00,LWC V2.00 B2112,2013-09-18 02:40:00,
2013-09-17 22:45:00,57.0,50.2,30.21,East,89,0.0,0.0,78,0.00,,,0.00,LWC V2.00 B2112,2013-09-18 02:45:00,
2013-09-17 22:50:00,56.9,50.1,30.21,East,89,0.0,0.0,78,0.00,,,0.00,LWC V2.00 B2112,2013-09-18 02:50:00,
2013-09-17 22:55:00,56.9,50.1,30.21,East,89,0.0,0.0,78,0.00,,,0.00,LWC V2.00 B2112,2013-09-18 02:55:00,
2013-09-17 23:00:00,56.7,49.9,30.21,East,89,0.0,0.0,78,0.00,,,0.00,LWC V2.00 B2112,2013-09-18 03:00:00,
2013-09-17 23:05:00,56.6,50.2,30.21,East,89,0.0,0.0,79,0.00,,,0.00,LWC V2.00 B2112,2013-09-18 03:05:00,
2013-09-17 23:10:00,56.5,50.1,30.22,East,89,0.0,0.0,79,0.00,,,0.00,LWC V2.00 B2112,2013-09-18 03:10:00,
2013-09-17 23:15:00,56.5,50.1,30.22,East,89,0.0,0.0,79,0.00,,,0.00,LWC V2.00 B2112,2013-09-18 03:15:00,
2013-09-17 23:20:00,56.3,50.2,30.22,East,89,0.0,0.0,80,0.00,,,0.00,LWC V2.00 B2112,2013-09-18 03:20:00,
2013-09-17 23:25:00,56.3,50.2,30.22,East,89,0.0,0.0,80,0.00,,,0.00,LWC V2.00 B2112,2013-09-18 03:25:00,
2013-09-17 23:30:00,56.2,50.1,30.22,East,89,0.0,0.0,80,0.00,,,0.00,LWC V2.00 B2112,2013-09-18 03:30:00,
2013-09-17 23:35:00,56.0,49.9,30.22,East,89,0.0,0.0,80,0.00,,,0.00,LWC V2.00 B2112,2013-09-18 03:35:00,
2013-09-17 23:40:00,56.0,50.2,30.22,East,89,0.0,0.0,81,0.00,,,0.00,LWC V2.00 B2112,2013-09-18 03:40:00,
2013-09-17 23:45:00,55.9,50.2,30.22,East,89,0.0,0.0,81,0.00,,,0.00,LWC V2.00 B2112,2013-09-18 03:45:00,
2013-09-17 23:50:00,55.9,50.2,30.22,East,89,0.0,0.0,81,0.00,,,0.00,LWC V2.00 B2112,2013-09-18 03:50:00,
2013-09-17 23:55:00,55.7,50.3,30.22,East,89,0.0,0.0,82,0.00,,,0.00,LWC V2.00 B2112,2013-09-18 03:55:00,